Time;durP1;ratioP1;P1;durP2;ratioP2;P2;SDS_P1;SDS_P2;PMS_P1;PMS_P2;Temp;Humidity;BMP_temperature;BMP_pressure;BME280_temperature;BME280_humidity;BME280_pressure;Samples;Min_cycle;Max_cycle;Signal;HPM_P1;HPM_P2
2023/01/27 00:00:17;;;;;;;15.05;4.13;;;;;;;3.56;100.00;102375.75;1027786;28;20685;-75
2023/01/27 00:00:50;;;;;;;12.88;4.20;;;;;;;3.53;100.00;102365.47;1021215;28;20397;-75
2023/01/27 00:01:21;;;;;;;15.25;7.45;;;;;;;3.53;100.00;102370.75;1022840;29;20321;-75
2023/01/27 00:01:53;;;;;;;15.85;4.57;;;;;;;3.50;100.00;102371.03;1023157;29;20381;-75
2023/01/27 00:02:24;;;;;;;15.48;5.68;;;;;;;3.49;100.00;102375.47;1024505;28;20321;-75
2023/01/27 00:02:56;;;;;;;14.88;5.35;;;;;;;3.49;100.00;102369.34;1031077;28;20818;-75
2023/01/27 00:03:27;;;;;;;13.32;4.88;;;;;;;3.49;100.00;102367.56;1028442;28;20644;-75
2023/01/27 00:03:59;;;;;;;14.15;5.15;;;;;;;3.50;100.00;102371.03;1028328;28;20308;-75
2023/01/27 00:04:31;;;;;;;16.35;5.30;;;;;;;3.49;100.00;102369.34;1027866;28;20305;-74
2023/01/27 00:05:03;;;;;;;10.27;4.70;;;;;;;3.49;100.00;102372.00;1028647;28;20381;-75
2023/01/27 00:05:34;;;;;;;11.50;4.55;;;;;;;3.46;100.00;102369.63;1028698;28;20289;-75
2023/01/27 00:06:10;;;;;;;5.80;3.95;;;;;;;3.46;100.00;102377.53;1031903;28;20301;-75
2023/01/27 00:06:42;;;;;;;12.73;4.40;;;;;;;3.46;100.00;102374.88;1028063;28;20422;-75
2023/01/27 00:07:13;;;;;;;10.38;4.53;;;;;;;3.47;100.00;102371.28;1028732;28;20348;-75
2023/01/27 00:07:45;;;;;;;14.75;5.43;;;;;;;3.48;100.00;102368.53;1032142;28;20659;-75
2023/01/27 00:08:17;;;;;;;11.93;4.55;;;;;;;3.48;100.00;102372.97;1032138;28;20385;-75
2023/01/27 00:08:48;;;;;;;11.93;4.65;;;;;;;3.48;100.00;102367.69;1031791;28;20304;-75
2023/01/27 00:09:20;;;;;;;6.75;4.93;;;;;;;3.49;100.00;102369.34;1032136;28;20320;-75
2023/01/27 00:09:51;;;;;;;14.55;5.55;;;;;;;3.47;100.00;102376.56;1032152;28;20313;-75
2023/01/27 00:10:23;;;;;;;8.20;5.20;;;;;;;3.47;100.00;102371.28;1032436;28;20359;-75
2023/01/27 00:13:30;;;;;;;17.20;6.05;;;;;;;3.45;100.00;102367.94;1036377;28;20316;-75
2023/01/27 00:14:02;;;;;;;11.45;4.90;;;;;;;3.41;100.00;102370.84;1036382;28;20339;-75
2023/01/27 00:14:33;;;;;;;11.13;4.45;;;;;;;3.41;100.00;102368.22;1036409;28;20603;-75
2023/01/27 00:15:07;;;;;;;17.70;4.35;;;;;;;3.42;100.00;102375.16;1036464;28;20379;-75
2023/01/27 00:15:39;;;;;;;7.70;4.30;;;;;;;3.47;100.00;102376.56;1031465;28;20396;-75
2023/01/27 00:16:11;;;;;;;14.15;5.10;;;;;;;3.47;100.00;102373.94;1032091;28;20296;-75
2023/01/27 00:16:42;;;;;;;15.40;4.88;;;;;;;3.49;100.00;102369.34;1032073;28;20659;-75
2023/01/27 00:17:14;;;;;;;9.45;5.55;;;;;;;3.46;100.00;102378.34;1031469;28;20728;-75
2023/01/27 00:17:45;;;;;;;13.73;5.35;;;;;;;3.41;100.00;102378.75;1028421;28;20426;-75
2023/01/27 00:18:17;;;;;;;10.35;4.93;;;;;;;3.42;100.00;102364.63;1027777;28;20334;-75
2023/01/27 00:18:48;;;;;;;9.98;5.57;;;;;;;3.47;100.00;102376.56;1023831;29;20310;-75
2023/01/27 00:19:20;;;;;;;8.23;4.00;;;;;;;3.45;100.00;102383.75;1024553;28;20310;-75
2023/01/27 00:19:51;;;;;;;12.23;4.47;;;;;;;3.44;100.00;102371.56;1028250;28;20293;-75
2023/01/27 00:24:36;;;;;;;19.30;5.07;;;;;;;3.39;100.00;102370.16;1032120;28;20301;-75
2023/01/27 00:25:08;;;;;;;10.25;4.40;;;;;;;3.39;100.00;102374.59;1031580;28;20293;-75
2023/01/27 00:25:39;;;;;;;8.80;3.50;;;;;;;3.39;100.00;102380.69;1031822;28;20301;-75
2023/01/27 00:26:16;;;;;;;21.70;6.03;;;;;;;3.41;100.00;102378.75;1035552;28;20786;-75
2023/01/27 00:26:48;;;;;;;18.70;6.88;;;;;;;3.41;100.00;102378.75;1036181;28;20311;-75
2023/01/27 00:27:21;;;;;;;10.38;4.72;;;;;;;3.38;100.00;102389.56;1028088;28;20935;-75
2023/01/27 00:27:53;;;;;;;10.85;4.00;;;;;;;3.36;100.00;102383.59;1025420;28;20358;-75
2023/01/27 00:28:25;;;;;;;8.65;3.88;;;;;;;3.37;100.00;102385.25;1027894;28;20301;-75
2023/01/27 00:28:57;;;;;;;15.45;6.60;;;;;;;3.37;100.00;102380.00;1027219;28;20797;-75
2023/01/27 00:29:28;;;;;;;21.95;5.40;;;;;;;3.38;100.00;102384.28;1027764;28;20650;-75
2023/01/27 00:30:03;;;;;;;9.43;4.10;;;;;;;3.34;100.00;102380.25;1027628;28;20317;-75
2023/01/27 00:30:34;;;;;;;9.32;4.03;;;;;;;3.33;100.00;102378.59;1028687;28;20716;-75
2023/01/27 00:33:39;;;;;;;13.15;5.40;;;;;;;3.40;100.00;102376.25;1035694;28;20790;-75
2023/01/27 00:34:10;;;;;;;16.13;5.03;;;;;;;3.41;100.00;102376.13;1036593;28;20117;-75
2023/01/27 00:34:42;;;;;;;8.15;4.57;;;;;;;3.38;100.00;102379.03;1031793;28;20301;-75
2023/01/27 00:35:17;;;;;;;13.25;4.70;;;;;;;3.34;100.00;102372.34;1031540;28;20320;-75
2023/01/27 00:35:49;;;;;;;6.60;4.15;;;;;;;3.32;100.00;102369.03;1027762;28;20325;-75
2023/01/27 00:36:21;;;;;;;12.25;5.65;;;;;;;3.33;100.00;102373.31;1024633;28;20299;-75
2023/01/27 00:36:52;;;;;;;12.88;5.47;;;;;;;3.32;100.00;102369.03;1023906;29;20314;-75
2023/01/27 00:37:24;;;;;;;9.95;4.95;;;;;;;3.35;100.00;102378.47;1023566;29;20298;-75
2023/01/27 00:37:56;;;;;;;9.48;4.50;;;;;;;3.36;100.00;102369.59;1024501;28;20349;-75
2023/01/27 00:38:28;;;;;;;8.07;4.32;;;;;;;3.34;100.00;102375.00;1024286;28;20303;-75
2023/01/27 00:39:00;;;;;;;7.00;4.35;;;;;;;3.32;100.00;102376.91;1023514;29;20646;-75
2023/01/27 00:39:32;;;;;;;14.90;7.38;;;;;;;3.32;100.00;102374.28;1015981;29;20411;-75
2023/01/27 00:40:04;;;;;;;10.98;4.82;;;;;;;3.33;100.00;102375.97;1017301;29;20308;-75
2023/01/27 00:40:36;;;;;;;11.35;5.68;;;;;;;3.32;100.00;102378.72;1020055;29;20309;-75
2023/01/27 00:41:20;;;;;;;12.98;4.90;;;;;;;3.32;100.00;102376.09;1024600;28;20357;-75
2023/01/27 00:41:51;;;;;;;14.10;5.20;;;;;;;3.29;100.00;102377.19;1023712;29;20735;-75
2023/01/27 00:42:23;;;;;;;8.52;4.50;;;;;;;3.32;100.00;102374.28;1021901;29;20299;-75
2023/01/27 00:42:54;;;;;;;14.38;4.93;;;;;;;3.31;100.00;102377.88;1021804;29;20749;-75
2023/01/27 00:43:26;;;;;;;16.65;4.20;;;;;;;3.31;100.00;102383.16;1016265;29;20335;-76
2023/01/27 00:43:57;;;;;;;9.10;4.70;;;;;;;3.31;100.00;102380.53;1015962;29;20312;-74
2023/01/27 00:44:29;;;;;;;14.27;4.40;;;;;;;3.31;100.00;102383.16;1012362;29;20387;-75
2023/01/27 00:45:51;;;;;;;12.93;4.90;;;;;;;3.25;100.00;102374.91;1022362;29;20303;-75
2023/01/27 00:46:24;;;;;;;11.80;3.92;;;;;;;3.27;100.00;102381.72;1026925;28;20290;-75
2023/01/27 00:46:55;;;;;;;7.50;5.07;;;;;;;3.27;100.00;102379.09;1027466;28;20302;-75
2023/01/27 00:47:27;;;;;;;10.25;5.25;;;;;;;3.28;100.00;102382.56;1028436;28;20310;-75
2023/01/27 00:47:58;;;;;;;11.63;4.45;;;;;;;3.29;100.00;102386.88;1023761;29;20438;-75
2023/01/27 00:48:30;;;;;;;9.57;4.90;;;;;;;3.32;100.00;102381.34;1019736;29;20311;-75
2023/01/27 00:49:01;;;;;;;11.40;4.47;;;;;;;3.34;100.00;102390.78;1019884;29;20793;-75
2023/01/27 00:49:33;;;;;;;11.10;4.97;;;;;;;3.34;100.00;102382.88;1016761;29;20811;-75
2023/01/27 00:50:06;;;;;;;14.00;6.20;;;;;;;3.35;100.00;102384.56;1019826;29;20311;-75
2023/01/27 00:50:39;;;;;;;18.42;6.30;;;;;;;3.36;100.00;102386.22;1017708;29;20312;-75
2023/01/27 00:51:12;;;;;;;13.05;5.15;;;;;;;3.36;100.00;102386.22;1024429;28;20655;-75
2023/01/27 00:51:43;;;;;;;12.13;5.95;;;;;;;3.35;100.00;102389.81;1024724;28;20575;-75
2023/01/27 00:52:15;;;;;;;11.80;4.43;;;;;;;3.36;100.00;102396.75;1028437;28;20408;-75
2023/01/27 00:52:47;;;;;;;19.05;6.70;;;;;;;3.38;100.00;102388.72;1030885;28;20322;-75
2023/01/27 00:53:18;;;;;;;8.60;4.85;;;;;;;3.40;100.00;102384.16;1023751;29;20398;-75
2023/01/27 00:53:50;;;;;;;13.10;5.00;;;;;;;3.37;100.00;102385.25;1019657;29;20427;-75
2023/01/27 00:54:22;;;;;;;10.80;5.60;;;;;;;3.41;100.00;102384.03;1023698;29;20310;-75
2023/01/27 00:54:53;;;;;;;11.32;5.13;;;;;;;3.40;100.00;102386.78;1020404;29;20300;-75
2023/01/27 00:55:26;;;;;;;15.88;6.05;;;;;;;3.37;100.00;102380.00;1027043;28;20302;-75
2023/01/27 00:55:58;;;;;;;14.25;7.13;;;;;;;3.36;100.00;102390.66;1027516;28;20325;-75
2023/01/27 00:56:30;;;;;;;13.13;6.35;;;;;;;3.37;100.00;102398.44;1019938;29;20361;-75
2023/01/27 00:57:03;;;;;;;11.00;6.70;;;;;;;3.37;100.00;102393.16;1016018;29;20658;-75
2023/01/27 00:57:34;;;;;;;14.50;6.25;;;;;;;3.38;100.00;102394.00;1016625;29;20296;-75
2023/01/27 00:58:06;;;;;;;14.95;6.07;;;;;;;3.36;100.00;102391.50;1020379;29;20700;-75
2023/01/27 00:58:38;;;;;;;13.55;6.28;;;;;;;3.34;100.00;102388.16;1025310;28;20310;-75
2023/01/27 00:59:09;;;;;;;14.23;7.35;;;;;;;3.38;100.00;102388.72;1027191;28;20855;-75
2023/01/27 00:59:41;;;;;;;17.73;7.15;;;;;;;3.40;100.00;102392.91;1027785;28;20818;-75
2023/01/27 01:00:14;;;;;;;16.75;7.25;;;;;;;3.39;100.00;102387.75;1023823;29;20303;-75
2023/01/27 01:00:46;;;;;;;17.55;7.05;;;;;;;3.39;100.00;102385.97;1024551;28;20306;-75
2023/01/27 01:01:20;;;;;;;9.93;6.30;;;;;;;3.41;100.00;102393.72;1027480;28;20390;-75
2023/01/27 01:01:52;;;;;;;14.50;6.50;;;;;;;3.38;100.00;102394.81;1024108;29;20290;-75
2023/01/27 01:02:24;;;;;;;9.13;5.70;;;;;;;3.33;100.00;102391.75;1023380;29;20474;-75
2023/01/27 01:02:55;;;;;;;20.70;7.70;;;;;;;3.33;100.00;102391.75;1024086;28;20677;-75
2023/01/27 01:03:31;;;;;;;10.63;6.90;;;;;;;3.32;100.00;102395.34;1024057;29;20381;-75
2023/01/27 01:04:03;;;;;;;11.85;7.68;;;;;;;3.34;100.00;102388.16;1025856;28;20306;-75
2023/01/27 01:04:38;;;;;;;11.18;7.28;;;;;;;3.32;100.00;102394.53;1023906;29;20307;-75
2023/01/27 01:05:09;;;;;;;20.67;8.45;;;;;;;3.31;100.00;102392.84;1023358;29;20669;-75
2023/01/27 01:05:41;;;;;;;14.48;5.93;;;;;;;3.29;100.00;102389.53;1019931;29;20872;-75
2023/01/27 01:06:14;;;;;;;15.07;8.23;;;;;;;3.31;100.00;102393.69;1015882;29;20322;-75
2023/01/27 01:06:46;;;;;;;15.35;7.40;;;;;;;3.28;100.00;102393.91;1023687;29;20297;-75
2023/01/27 01:07:18;;;;;;;15.20;7.95;;;;;;;3.28;100.00;102388.66;1024533;28;20307;-75
2023/01/27 01:07:49;;;;;;;17.15;9.60;;;;;;;3.33;100.00;102397.03;1030893;28;20333;-75
2023/01/27 01:08:21;;;;;;;16.35;8.70;;;;;;;3.33;100.00;102390.91;1031369;28;20313;-75
2023/01/27 01:08:55;;;;;;;10.63;7.93;;;;;;;3.33;100.00;102391.75;1023393;29;20349;-75
2023/01/27 01:09:27;;;;;;;11.75;7.63;;;;;;;3.29;100.00;102390.34;1015916;29;20379;-76
2023/01/27 01:09:59;;;;;;;11.00;8.43;;;;;;;3.30;100.00;102386.75;1016609;29;20793;-75
2023/01/27 01:10:31;;;;;;;10.75;8.25;;;;;;;3.29;100.00;102390.34;1020650;29;20374;-75
2023/01/27 01:11:04;;;;;;;16.33;8.50;;;;;;;3.25;100.00;102388.09;1024903;28;20294;-75
2023/01/27 01:11:36;;;;;;;15.70;9.20;;;;;;;3.27;100.00;102389.63;1027545;28;20346;-75
2023/01/27 01:12:08;;;;;;;16.83;9.35;;;;;;;3.28;100.00;102393.91;1027501;28;20795;-75
2023/01/27 01:12:39;;;;;;;16.30;8.68;;;;;;;3.30;100.00;102397.28;1023269;29;20709;-75
2023/01/27 01:13:11;;;;;;;12.60;8.65;;;;;;;3.30;100.00;102394.66;1020010;29;20884;-75
2023/01/27 01:13:44;;;;;;;15.25;9.70;;;;;;;3.30;100.00;102388.56;1023997;29;20299;-75
2023/01/27 01:14:15;;;;;;;12.77;8.77;;;;;;;3.29;100.00;102390.34;1019642;29;20304;-75
2023/01/27 01:14:47;;;;;;;16.65;9.65;;;;;;;3.24;100.00;102392.53;1019650;29;20384;-75
2023/01/27 01:15:18;;;;;;;17.10;10.43;;;;;;;3.26;100.00;102395.84;1023819;29;20322;-75
2023/01/27 01:15:50;;;;;;;18.10;8.48;;;;;;;3.24;100.00;102397.78;1018013;29;20308;-75
2023/01/27 01:16:23;;;;;;;15.95;9.30;;;;;;;3.25;100.00;102391.56;1020205;29;20310;-75
2023/01/27 01:16:55;;;;;;;16.83;9.52;;;;;;;3.26;100.00;102395.03;1019475;29;20315;-75
2023/01/27 01:17:26;;;;;;;23.45;9.80;;;;;;;3.28;100.00;102395.72;1020779;29;20302;-75
2023/01/27 01:17:58;;;;;;;17.48;9.77;;;;;;;3.29;100.00;102398.25;1023991;28;20823;-76
2023/01/27 01:18:29;;;;;;;14.38;9.32;;;;;;;3.27;100.00;102397.53;1027519;28;20305;-76
2023/01/27 01:19:01;;;;;;;20.60;10.65;;;;;;;3.28;100.00;102396.56;1027821;28;20309;-75
2023/01/27 01:19:33;;;;;;;15.05;10.50;;;;;;;3.29;100.00;102395.63;1027498;28;20298;-75
2023/01/27 01:20:05;;;;;;;15.90;9.95;;;;;;;3.29;100.00;102392.97;1028210;28;20302;-75
2023/01/27 01:20:38;;;;;;;17.77;11.45;;;;;;;3.30;100.00;102401.72;1031984;28;20304;-75
2023/01/27 01:21:11;;;;;;;17.90;10.48;;;;;;;3.32;100.00;102398.00;1027671;28;20298;-75
2023/01/27 01:21:43;;;;;;;15.55;9.10;;;;;;;3.30;100.00;102397.28;1017280;29;20801;-75
2023/01/27 01:22:14;;;;;;;20.98;9.45;;;;;;;3.29;100.00;102400.06;1015230;29;20311;-75
2023/01/27 01:22:46;;;;;;;14.23;9.63;;;;;;;3.31;100.00;102398.13;1016566;29;20687;-75
2023/01/27 01:23:20;;;;;;;16.40;10.30;;;;;;;3.32;100.00;102398.00;1014485;29;20300;-75
2023/01/27 01:23:52;;;;;;;16.13;8.75;;;;;;;3.33;100.00;102402.28;1015860;29;20296;-75
2023/01/27 01:24:25;;;;;;;18.70;11.95;;;;;;;3.35;100.00;102403.00;1015678;29;20316;-75
2023/01/27 01:24:56;;;;;;;18.58;9.60;;;;;;;3.37;100.00;102397.59;1016740;29;20846;-75
2023/01/27 01:25:28;;;;;;;18.85;10.10;;;;;;;3.38;100.00;102402.72;1020493;29;20299;-75
2023/01/27 01:26:00;;;;;;;18.98;11.45;;;;;;;3.39;100.00;102401.75;1016583;29;20650;-75
2023/01/27 01:26:32;;;;;;;23.38;10.45;;;;;;;3.39;100.00;102409.66;1023572;29;20314;-75
2023/01/27 01:27:03;;;;;;;24.17;11.75;;;;;;;3.38;100.00;102400.09;1015946;29;20774;-75
2023/01/27 01:27:35;;;;;;;14.98;9.63;;;;;;;3.41;100.00;102410.38;1016554;29;20308;-76
2023/01/27 01:28:07;;;;;;;17.60;9.73;;;;;;;3.42;100.00;102405.94;1023710;29;20370;-76
2023/01/27 01:28:40;;;;;;;21.08;13.30;;;;;;;3.42;100.00;102412.03;1020362;29;20303;-76
2023/01/27 01:29:12;;;;;;;23.80;10.77;;;;;;;3.41;100.00;102409.53;1023631;29;20297;-75
2023/01/27 01:29:43;;;;;;;21.90;10.77;;;;;;;3.36;100.00;102412.56;1019831;29;20318;-76
2023/01/27 01:30:15;;;;;;;18.08;9.52;;;;;;;3.39;100.00;102412.28;1016902;29;20360;-75
2023/01/27 01:30:47;;;;;;;24.63;9.80;;;;;;;3.34;100.00;102405.75;1020003;29;20406;-75
2023/01/27 01:31:19;;;;;;;19.42;11.65;;;;;;;3.35;100.00;102416.16;1024260;28;20689;-76
2023/01/27 01:31:50;;;;;;;20.98;11.15;;;;;;;3.38;100.00;102415.91;1023386;29;20310;-75
2023/01/27 01:32:22;;;;;;;17.20;10.07;;;;;;;3.39;100.00;102417.56;1019598;29;20306;-75
2023/01/27 01:32:55;;;;;;;17.85;11.70;;;;;;;3.40;100.00;102419.22;1016478;29;20398;-75
2023/01/27 01:33:26;;;;;;;20.27;10.85;;;;;;;3.39;100.00;102422.84;1009287;29;20317;-75
2023/01/27 01:33:58;;;;;;;18.85;10.88;;;;;;;3.37;100.00;102414.22;1016482;29;20311;-75
2023/01/27 01:34:30;;;;;;;16.95;9.88;;;;;;;3.36;100.00;102417.81;1015587;29;20311;-76
2023/01/27 01:35:02;;;;;;;16.05;11.43;;;;;;;3.37;100.00;102414.22;1012741;29;20308;-76
2023/01/27 01:35:36;;;;;;;15.35;8.90;;;;;;;3.38;100.00;102415.91;1019993;29;20338;-76
2023/01/27 01:36:16;;;;;;;16.52;8.93;;;;;;;3.35;100.00;102415.31;1016519;29;20308;-75
2023/01/27 01:36:47;;;;;;;23.38;10.10;;;;;;;3.33;100.00;102412.00;1016961;29;20312;-75
2023/01/27 01:37:19;;;;;;;16.50;9.70;;;;;;;3.33;100.00;102418.09;1011967;29;20313;-75
2023/01/27 01:37:51;;;;;;;22.45;10.68;;;;;;;3.35;100.00;102410.91;1013543;29;20305;-75
2023/01/27 01:38:23;;;;;;;15.27;10.10;;;;;;;3.36;100.00;102417.81;1011492;29;20308;-75
2023/01/27 01:38:57;;;;;;;16.23;10.38;;;;;;;3.36;100.00;102422.25;1017053;29;20394;-75
2023/01/27 01:39:30;;;;;;;16.92;10.00;;;;;;;3.36;100.00;102414.34;1020502;29;20318;-76
2023/01/27 01:40:02;;;;;;;17.02;9.88;;;;;;;3.37;100.00;102419.50;1024478;28;20306;-76
2023/01/27 01:40:33;;;;;;;18.65;10.43;;;;;;;3.34;100.00;102424.19;1019751;29;20827;-75
2023/01/27 01:41:06;;;;;;;17.83;9.50;;;;;;;3.33;100.00;102426.00;1016933;29;20300;-76
2023/01/27 01:41:38;;;;;;;19.55;10.18;;;;;;;3.34;100.00;102422.41;1016059;29;20383;-75
2023/01/27 01:42:11;;;;;;;20.02;10.02;;;;;;;3.33;100.00;102427.78;1017983;29;20781;-75
2023/01/27 01:42:52;;;;;;;26.58;12.52;;;;;;;3.34;100.00;102419.75;1023082;28;20306;-75
2023/01/27 01:43:25;;;;;;;16.25;7.70;;;;;;;3.25;100.00;102415.25;1021531;29;20304;-75
2023/01/27 01:44:18;;;;;;;16.60;9.38;;;;;;;3.26;100.00;102422.19;1015821;29;20100;-75
2023/01/27 01:44:53;;;;;;;21.33;10.80;;;;;;;3.23;100.00;102425.09;1019845;29;20310;-75
2023/01/27 01:45:30;;;;;;;16.67;10.73;;;;;;;3.23;100.00;102421.63;1023477;29;20039;-75
2023/01/27 01:46:03;;;;;;;18.02;9.98;;;;;;;3.21;100.00;102419.09;1031664;28;20297;-75
2023/01/27 01:46:34;;;;;;;21.52;11.40;;;;;;;3.24;100.00;102424.13;1031439;28;20293;-75
2023/01/27 01:47:13;;;;;;;20.88;10.73;;;;;;;3.24;100.00;102418.00;1029030;28;20317;-75
2023/01/27 01:47:45;;;;;;;16.20;11.20;;;;;;;3.24;100.00;102424.13;1027376;28;20302;-75
2023/01/27 01:48:20;;;;;;;15.15;10.25;;;;;;;3.23;100.00;102422.44;1023027;29;20298;-75
2023/01/27 01:48:55;;;;;;;15.68;10.13;;;;;;;3.22;100.00;102414.69;1023728;29;20309;-75
2023/01/27 01:49:34;;;;;;;17.20;11.40;;;;;;;3.23;100.00;102422.44;1020729;29;20306;-75
2023/01/27 01:50:07;;;;;;;23.58;10.85;;;;;;;3.24;100.00;102418.00;1022113;29;20307;-75
2023/01/27 01:50:41;;;;;;;22.02;10.45;;;;;;;3.22;100.00;102423.41;1019089;29;20299;-75
2023/01/27 01:51:27;;;;;;;15.93;8.65;;;;;;;3.17;100.00;102417.69;1019345;29;20319;-75
2023/01/27 01:52:02;;;;;;;15.10;9.35;;;;;;;3.19;100.00;102418.41;1022566;29;20298;-75
2023/01/27 01:52:36;;;;;;;22.20;10.82;;;;;;;3.19;100.00;102412.31;1027216;28;20664;-75
2023/01/27 01:53:08;;;;;;;19.75;10.10;;;;;;;3.19;100.00;102422.84;1030818;28;20918;-75
2023/01/27 01:53:46;;;;;;;20.30;11.85;;;;;;;3.17;100.00;102417.69;1033114;28;20712;-75
2023/01/27 01:54:29;;;;;;;17.17;10.45;;;;;;;3.13;100.00;102426.81;1031471;28;20715;-75
2023/01/27 01:55:01;;;;;;;14.80;9.65;;;;;;;3.11;100.00;102418.22;1023670;29;20306;-75
2023/01/27 01:55:33;;;;;;;16.27;11.30;;;;;;;3.10;100.00;102425.28;1023701;29;20306;-75
2023/01/27 01:56:17;;;;;;;22.08;13.55;;;;;;;3.11;100.00;102426.13;1019647;29;21083;-75
2023/01/27 01:56:55;;;;;;;21.35;12.32;;;;;;;3.10;100.00;102432.34;1020944;29;20452;-76
2023/01/27 01:57:31;;;;;;;19.92;10.38;;;;;;;3.09;100.00;102425.41;1018115;29;20318;-75
2023/01/27 01:58:06;;;;;;;15.40;10.77;;;;;;;3.09;100.00;102431.53;1023373;29;20310;-75
2023/01/27 01:58:38;;;;;;;19.83;12.90;;;;;;;3.09;100.00;102426.25;1021695;29;20674;-75
2023/01/27 01:59:19;;;;;;;21.88;11.55;;;;;;;3.07;100.00;102432.63;1022873;28;20351;-75
2023/01/27 01:59:52;;;;;;;;;;;;;;;3.05;100.00;102424.00;1020040;29;20304;-75
2023/01/27 02:00:24;;;;;;;18.95;10.38;;;;;;;3.07;100.00;102422.09;1017566;29;19923;-75
2023/01/27 02:00:56;;;;;;;16.27;11.10;;;;;;;3.10;100.00;102427.09;1021558;29;20308;-75
2023/01/27 02:01:27;;;;;;;19.45;11.02;;;;;;;3.09;100.00;102431.53;1020650;28;20450;-75
2023/01/27 02:02:02;;;;;;;18.17;11.75;;;;;;;3.07;100.00;102432.63;1027691;28;20306;-76
2023/01/27 02:02:36;;;;;;;17.20;13.15;;;;;;;3.10;100.00;102432.34;1028465;28;20388;-76
2023/01/27 02:03:08;;;;;;;17.33;12.10;;;;;;;3.09;100.00;102434.16;1028982;28;20290;-76
2023/01/27 02:03:41;;;;;;;19.25;11.35;;;;;;;3.05;100.00;102435.38;1027714;28;20313;-74
2023/01/27 02:04:17;;;;;;;19.75;12.40;;;;;;;3.06;100.00;102441.47;1027313;28;20302;-75
2023/01/27 02:05:00;;;;;;;21.02;11.18;;;;;;;3.05;100.00;102437.19;1026114;28;20297;-76
2023/01/27 02:05:34;;;;;;;18.40;11.70;;;;;;;3.03;100.00;102439.94;1029995;28;20313;-75
2023/01/27 02:06:06;;;;;;;21.23;12.88;;;;;;;3.03;100.00;102429.41;1027531;28;20321;-75
2023/01/27 02:06:44;;;;;;;17.98;12.18;;;;;;;3.05;100.00;102437.19;1029731;28;20301;-75
2023/01/27 02:07:21;;;;;;;20.40;12.18;;;;;;;3.01;100.00;102443.63;1027094;28;20314;-75
2023/01/27 02:08:02;;;;;;;16.75;12.10;;;;;;;3.04;100.00;102443.41;1022013;29;20086;-75
2023/01/27 02:08:38;;;;;;;24.23;14.18;;;;;;;3.03;100.00;102447.00;1019344;29;20378;-75
2023/01/27 02:09:10;;;;;;;20.83;12.05;;;;;;;3.02;100.00;102440.06;1022595;29;20390;-75
2023/01/27 02:09:42;;;;;;;20.88;12.27;;;;;;;3.01;100.00;102443.63;1021419;29;20311;-75
2023/01/27 02:10:14;;;;;;;23.73;13.43;;;;;;;3.02;100.00;102440.06;1012987;29;20719;-76
2023/01/27 02:10:46;;;;;;;25.67;13.25;;;;;;;3.02;100.00;102443.53;1016457;29;20319;-75
2023/01/27 02:11:19;;;;;;;22.02;13.02;;;;;;;3.04;100.00;102443.41;1015994;29;20387;-75
2023/01/27 02:11:51;;;;;;;21.08;14.88;;;;;;;3.05;100.00;102447.69;1016826;29;20308;-75
2023/01/27 02:12:23;;;;;;;19.55;12.18;;;;;;;3.05;100.00;102442.44;1024190;28;20661;-75
2023/01/27 02:12:55;;;;;;;20.98;14.80;;;;;;;3.05;100.00;102434.53;1027691;28;20652;-75
2023/01/27 02:13:26;;;;;;;19.33;13.43;;;;;;;3.03;100.00;102445.19;1028230;28;20650;-75
2023/01/27 02:14:01;;;;;;;19.58;12.23;;;;;;;3.02;100.00;102443.53;1028954;28;20309;-75
2023/01/27 02:14:33;;;;;;;22.38;14.65;;;;;;;3.07;100.00;102440.50;1027413;28;20306;-75
2023/01/27 02:15:06;;;;;;;20.10;14.80;;;;;;;3.06;100.00;102439.69;1027257;28;20669;-75
2023/01/27 02:15:37;;;;;;;20.85;13.52;;;;;;;3.06;100.00;102438.84;1019890;29;20356;-75
2023/01/27 02:16:10;;;;;;;19.80;12.32;;;;;;;3.05;100.00;102442.44;1019701;29;20809;-75
2023/01/27 02:16:43;;;;;;;20.88;13.05;;;;;;;3.02;100.00;102440.91;1019253;29;20714;-75
2023/01/27 02:17:15;;;;;;;18.30;12.30;;;;;;;3.02;100.00;102440.06;1023340;29;20401;-75
2023/01/27 02:17:47;;;;;;;21.52;12.38;;;;;;;3.00;100.00;102439.31;1020139;29;20781;-75
2023/01/27 02:18:19;;;;;;;19.02;13.10;;;;;;;3.03;100.00;102442.56;1021511;28;20339;-75
2023/01/27 02:18:51;;;;;;;21.15;13.65;;;;;;;3.06;100.00;102446.75;1028173;28;20302;-74
2023/01/27 02:19:31;;;;;;;32.40;16.55;;;;;;;3.04;100.00;102438.97;1031919;28;20704;-75
2023/01/27 02:20:03;;;;;;;21.33;13.90;;;;;;;3.02;100.00;102429.53;1030671;28;20744;-76
2023/01/27 02:20:46;;;;;;;19.23;12.30;;;;;;;3.03;100.00;102436.47;1031841;28;20050;-75
2023/01/27 02:21:17;;;;;;;17.83;12.70;;;;;;;3.04;100.00;102433.72;1023151;29;20310;-75
2023/01/27 02:21:53;;;;;;;18.63;11.88;;;;;;;3.02;100.00;102430.38;1025640;28;20314;-75
2023/01/27 02:22:46;;;;;;;21.00;13.88;;;;;;;3.02;100.00;102440.06;1023530;29;20315;-75
2023/01/27 02:23:28;;;;;;;21.95;12.00;;;;;;;2.98;100.00;102428.09;1023074;29;20295;-75
2023/01/27 02:24:01;;;;;;;18.75;11.68;;;;;;;2.97;100.00;102439.59;1024167;28;20734;-75
2023/01/27 02:24:37;;;;;;;16.38;12.65;;;;;;;2.95;100.00;102426.56;1023490;29;20301;-75
2023/01/27 02:25:17;;;;;;;16.88;11.88;;;;;;;2.93;100.00;102430.28;1021872;29;20307;-75
2023/01/27 02:25:57;;;;;;;20.10;12.75;;;;;;;2.96;100.00;102440.56;1027268;28;20317;-76
2023/01/27 02:26:31;;;;;;;22.30;14.38;;;;;;;2.97;100.00;102436.94;1019466;29;21208;-75
2023/01/27 02:27:03;;;;;;;16.60;11.18;;;;;;;2.96;100.00;102437.91;1022547;29;20039;-75
2023/01/27 02:27:34;;;;;;;33.25;14.40;;;;;;;2.95;100.00;102433.63;1024818;28;20334;-75
2023/01/27 02:28:07;;;;;;;17.38;11.35;;;;;;;2.94;100.00;102432.78;1027460;28;20616;-75
2023/01/27 02:28:39;;;;;;;25.58;13.45;;;;;;;2.96;100.00;102435.28;1027179;28;20313;-75
2023/01/27 02:29:14;;;;;;;19.38;13.05;;;;;;;2.95;100.00;102438.88;1023615;29;20298;-75
2023/01/27 02:29:46;;;;;;;20.15;13.05;;;;;;;2.97;100.00;102444.84;1015520;29;20315;-75
2023/01/27 02:30:18;;;;;;;19.23;13.77;;;;;;;3.00;100.00;102441.97;1020043;28;20311;-75
2023/01/27 02:30:49;;;;;;;18.88;12.88;;;;;;;3.00;100.00;102434.06;1027525;28;20345;-75
2023/01/27 02:31:22;;;;;;;22.80;14.45;;;;;;;3.00;100.00;102436.69;1027966;28;20804;-75
2023/01/27 02:31:53;;;;;;;20.48;14.93;;;;;;;3.01;100.00;102438.38;1027330;28;20810;-75
2023/01/27 02:32:25;;;;;;;21.50;13.43;;;;;;;3.02;100.00;102437.44;1027531;28;20286;-75
2023/01/27 02:32:59;;;;;;;21.67;15.13;;;;;;;3.03;100.00;102441.72;1028193;28;20672;-74
2023/01/27 02:33:30;;;;;;;21.35;13.73;;;;;;;3.05;100.00;102435.38;1028144;28;20302;-75
2023/01/27 02:34:07;;;;;;;26.25;15.23;;;;;;;3.05;100.00;102437.19;1027265;28;20369;-75
2023/01/27 02:34:38;;;;;;;22.08;14.85;;;;;;;3.04;100.00;102440.78;1023164;29;20303;-75
2023/01/27 02:35:14;;;;;;;22.38;14.55;;;;;;;3.05;100.00;102437.19;1019635;29;20348;-75
2023/01/27 02:36:06;;;;;;;20.70;14.27;;;;;;;3.02;100.00;102435.63;1016820;29;20304;-75
2023/01/27 02:36:42;;;;;;;20.55;14.10;;;;;;;3.03;100.00;102436.47;1020773;29;20666;-75
2023/01/27 02:37:15;;;;;;;23.35;13.48;;;;;;;3.01;100.00;102433.97;1019417;29;21129;-75
2023/01/27 02:37:48;;;;;;;20.45;12.73;;;;;;;3.03;100.00;102441.72;1022724;29;20334;-75
2023/01/27 02:38:20;;;;;;;23.02;13.85;;;;;;;3.03;100.00;102439.09;1017535;29;20312;-75
2023/01/27 02:38:54;;;;;;;21.35;14.10;;;;;;;3.04;100.00;102440.78;1024739;28;20309;-75
2023/01/27 02:39:31;;;;;;;18.10;13.82;;;;;;;3.03;100.00;102444.38;1021010;29;20360;-75
2023/01/27 02:40:03;;;;;;;20.55;13.73;;;;;;;3.01;100.00;102444.50;1019467;29;20311;-75
2023/01/27 02:40:35;;;;;;;17.33;13.18;;;;;;;3.00;100.00;102440.16;1019513;29;20669;-75
2023/01/27 02:41:11;;;;;;;20.65;14.10;;;;;;;3.01;100.00;102441.00;1020803;28;20387;-75
2023/01/27 02:41:45;;;;;;;20.38;12.57;;;;;;;3.01;100.00;102438.38;1022121;28;20306;-75
2023/01/27 02:42:17;;;;;;;18.88;13.05;;;;;;;2.98;100.00;102438.63;1015370;29;20312;-75